createdAt,value
2019-04-29T00:02:38.718Z,37.24
2019-04-29T00:07:42.178Z,37.24
2019-04-29T00:12:45.638Z,37.28
2019-04-29T00:17:53.723Z,37.30
2019-04-29T00:22:57.186Z,37.29
2019-04-29T00:28:00.645Z,37.36
2019-04-29T00:33:04.178Z,37.35
2019-04-29T00:38:12.012Z,37.37
2019-04-29T00:43:19.774Z,37.42
2019-04-29T00:48:23.240Z,37.41
2019-04-29T00:53:27.172Z,37.47
2019-04-29T00:58:30.633Z,37.46
2019-04-29T01:03:34.099Z,37.50
2019-04-29T01:08:37.566Z,37.52
2019-04-29T01:13:41.026Z,37.52
2019-04-29T01:18:44.495Z,37.55
2019-04-29T01:23:47.959Z,37.57
2019-04-29T01:28:55.771Z,37.57
2019-04-29T01:34:00.868Z,37.61
2019-04-29T01:39:08.042Z,37.61
2019-04-29T01:44:12.175Z,37.62
2019-04-29T01:49:15.638Z,37.64
2019-04-29T01:54:19.102Z,37.67
2019-04-29T01:59:22.568Z,37.66
2019-04-29T02:04:26.046Z,37.71
2019-04-29T02:09:34.083Z,37.70
2019-04-29T02:14:37.547Z,37.71
2019-04-29T02:19:41.014Z,37.73
2019-04-29T02:24:49.017Z,37.74
2019-04-29T02:29:52.483Z,37.75
2019-04-29T02:34:55.945Z,37.75
2019-04-29T02:40:09.903Z,37.78
2019-04-29T02:45:15.245Z,37.79
2019-04-29T02:50:19.197Z,37.83
2019-04-29T02:55:24.286Z,37.83
2019-04-29T03:00:35.186Z,37.83
2019-04-29T03:05:43.363Z,37.86
2019-04-29T03:10:47.188Z,37.87
2019-04-29T03:15:50.814Z,37.91
2019-04-29T03:20:55.928Z,37.91
2019-04-29T03:25:59.373Z,37.95
2019-04-29T03:31:02.837Z,37.94
2019-04-29T03:36:06.364Z,37.97
2019-04-29T03:41:09.815Z,38.00
2019-04-29T03:46:13.281Z,38.00
2019-04-29T03:51:16.735Z,38.03
2019-04-29T03:56:20.199Z,38.05
2019-04-29T04:01:25.306Z,38.09
2019-04-29T04:06:30.407Z,38.10
2019-04-29T04:11:33.867Z,38.10
2019-04-29T04:16:50.876Z,38.18
2019-04-29T04:21:54.338Z,38.14
2019-04-29T04:26:57.799Z,38.17
2019-04-29T04:32:01.277Z,38.21
2019-04-29T04:37:04.739Z,38.21
2019-04-29T04:42:08.203Z,38.21
2019-04-29T04:47:11.670Z,38.24
2019-04-29T04:52:15.131Z,38.26
2019-04-29T04:57:18.591Z,38.28
2019-04-29T05:02:23.692Z,38.29
2019-04-29T05:07:27.155Z,38.31
2019-04-29T05:12:30.620Z,38.34
2019-04-29T05:17:34.080Z,38.34
2019-04-29T05:22:37.538Z,38.35
2019-04-29T05:27:40.992Z,38.40
2019-04-29T05:32:44.459Z,38.41
2019-04-29T05:37:56.900Z,38.41
2019-04-29T05:43:00.456Z,38.42
2019-04-29T05:48:05.557Z,38.46
2019-04-29T05:53:25.976Z,38.48
2019-04-29T05:58:32.889Z,38.51
2019-04-29T06:03:37.809Z,38.49
2019-04-29T06:08:40.580Z,38.51
2019-04-29T06:13:44.164Z,38.48
2019-04-29T06:18:47.623Z,38.54
2019-04-29T06:23:54.281Z,38.53
2019-04-29T06:28:56.277Z,38.54
2019-04-29T06:34:00.570Z,38.56
2019-04-29T06:39:06.190Z,37.69
2019-04-29T06:44:16.084Z,36.20
2019-04-29T06:49:14.842Z,35.60
2019-04-29T06:54:18.305Z,34.66
2019-04-29T06:59:21.762Z,34.32
2019-04-29T07:04:25.227Z,34.05
2019-04-29T07:09:28.691Z,33.84
2019-04-29T07:14:32.916Z,34.43
2019-04-29T07:19:37.336Z,34.62
2019-04-29T07:24:40.797Z,34.63
2019-04-29T07:29:44.263Z,34.99
2019-04-29T07:34:47.729Z,35.36
2019-04-29T07:39:51.188Z,35.48
2019-04-29T07:45:12.651Z,35.73
2019-04-29T07:50:16.452Z,36.02
2019-04-29T07:55:19.886Z,36.23
2019-04-29T08:00:32.099Z,36.44
2019-04-29T08:05:35.986Z,36.60
2019-04-29T08:10:53.579Z,36.76
2019-04-29T08:15:44.625Z,36.90
2019-04-29T08:20:48.089Z,36.94
2019-04-29T08:25:51.550Z,36.97
2019-04-29T08:30:55.009Z,37.25
2019-04-29T08:35:58.547Z,37.40
2019-04-29T08:41:02.010Z,37.59
2019-04-29T08:46:10.144Z,37.69
2019-04-29T08:51:13.606Z,37.62
2019-04-29T08:56:17.068Z,37.59
2019-04-29T09:06:27.871Z,37.53
2019-04-29T09:11:29.281Z,37.56
2019-04-29T09:16:32.735Z,37.72
2019-04-29T09:21:36.200Z,37.67
2019-04-29T09:26:41.288Z,37.67
2019-04-29T09:31:46.739Z,38.30
2019-04-29T09:36:50.252Z,38.56
2019-04-29T09:42:08.063Z,38.53
2019-04-29T09:47:10.650Z,38.68
2019-04-29T09:52:14.112Z,38.54
2019-04-29T09:57:17.805Z,38.41
2019-04-29T10:07:33.796Z,38.47
2019-04-29T10:12:37.254Z,38.36
2019-04-29T10:17:45.852Z,38.47
2019-04-29T10:22:53.806Z,38.44
2019-04-29T10:27:55.632Z,38.39
2019-04-29T10:32:59.094Z,38.48
2019-04-29T10:38:03.183Z,38.73
2019-04-29T10:43:11.319Z,38.83
2019-04-29T10:48:19.018Z,38.81
2019-04-29T10:53:22.546Z,38.67
2019-04-29T10:58:30.312Z,38.56
2019-04-29T11:03:32.098Z,38.22
2019-04-29T11:08:38.122Z,37.96
2019-04-29T11:13:48.343Z,38.00
2019-04-29T11:18:47.643Z,37.95
2019-04-29T11:23:54.909Z,37.93
2019-04-29T11:28:59.266Z,37.87
2019-04-29T11:34:07.374Z,37.85
2019-04-29T11:39:13.807Z,37.81
2019-04-29T11:44:17.062Z,37.76
2019-04-29T11:49:22.180Z,37.71
2019-04-29T11:54:25.651Z,37.69
2019-04-29T11:59:33.931Z,37.70
2019-04-29T12:04:42.334Z,37.66
2019-04-29T12:09:46.057Z,37.65
2019-04-29T12:14:51.172Z,37.60
2019-04-29T12:19:56.288Z,37.61
2019-04-29T12:24:59.763Z,37.61
2019-04-29T12:30:06.621Z,37.60
2019-04-29T12:35:12.174Z,37.59
2019-04-29T12:40:17.574Z,37.59
2019-04-29T12:45:22.715Z,37.62
2019-04-29T12:50:26.314Z,37.61
2019-04-29T12:55:44.041Z,37.61
2019-04-29T13:00:47.882Z,37.89
2019-04-29T13:06:02.711Z,37.89
2019-04-29T13:11:08.014Z,37.62
2019-04-29T13:16:20.070Z,37.66
2019-04-29T13:21:20.345Z,37.66
2019-04-29T13:26:28.429Z,37.67
2019-04-29T13:31:38.075Z,37.69
2019-04-29T13:36:34.435Z,37.70
2019-04-29T13:41:56.149Z,37.71
2019-04-29T13:47:00.890Z,37.72
2019-04-29T13:52:14.026Z,37.76
2019-04-29T13:57:17.501Z,37.79
2019-04-29T14:02:33.542Z,37.80
2019-04-29T14:07:34.052Z,37.83
2019-04-29T14:13:05.120Z,37.86
2019-04-29T14:17:42.700Z,37.88
2019-04-29T14:22:46.159Z,37.92
2019-04-29T14:27:49.617Z,37.92
2019-04-29T14:32:54.726Z,37.95
2019-04-29T14:38:04.570Z,37.97
2019-04-29T14:43:28.907Z,37.98
2019-04-29T14:48:41.088Z,38.02
2019-04-29T14:53:33.176Z,38.05
2019-04-29T14:58:36.797Z,38.05
2019-04-29T15:03:58.194Z,38.09
2019-04-29T15:09:01.699Z,38.11
2019-04-29T15:14:25.073Z,38.24
2019-04-29T15:19:49.369Z,38.39
2019-04-29T15:24:51.377Z,38.54
2019-04-29T15:29:54.843Z,38.54
2019-04-29T15:34:58.305Z,38.68
2019-04-29T15:40:01.969Z,38.75
2019-04-29T15:45:08.988Z,38.71
2019-04-29T15:50:18.887Z,38.72
2019-04-29T15:55:18.275Z,38.72
2019-04-29T16:00:23.541Z,38.74
2019-04-29T16:05:34.468Z,38.77
2019-04-29T16:10:57.995Z,38.75
2019-04-29T16:16:00.136Z,38.75
2019-04-29T16:21:03.867Z,38.74
2019-04-29T16:26:07.354Z,38.69
2019-04-29T16:31:12.082Z,38.69
2019-04-29T16:36:15.973Z,38.74
2019-04-29T16:41:21.091Z,38.72
2019-04-29T16:46:35.453Z,38.87
2019-04-29T16:51:31.372Z,38.89
2019-04-29T16:56:34.833Z,38.96
2019-04-29T17:01:38.367Z,39.07
2019-04-29T17:06:59.584Z,39.18
2019-04-29T17:11:50.524Z,39.30
2019-04-29T17:16:53.038Z,39.49
2019-04-29T17:22:23.688Z,39.58
2019-04-29T17:27:15.616Z,39.74
2019-04-29T17:32:21.645Z,39.87
2019-04-29T17:37:25.457Z,39.99
2019-04-29T17:42:30.558Z,40.31
2019-04-29T17:47:47.415Z,40.32
2019-04-29T17:52:50.078Z,40.30
2019-04-29T17:57:55.178Z,40.33
2019-04-29T18:03:16.439Z,40.52
2019-04-29T18:08:33.754Z,40.60
2019-04-29T18:13:37.185Z,40.65
2019-04-29T18:18:46.642Z,40.67
2019-04-29T18:24:00.808Z,40.69
2019-04-29T18:29:07.658Z,40.67
2019-04-29T18:34:09.796Z,40.67
2019-04-29T18:39:15.955Z,40.66
2019-04-29T18:44:19.834Z,40.67
2019-04-29T18:49:23.377Z,40.71
2019-04-29T18:54:27.067Z,40.70
2019-04-29T18:59:33.475Z,40.70
2019-04-29T19:04:40.105Z,40.67
2019-04-29T19:09:45.288Z,40.66
2019-04-29T19:14:49.306Z,40.65
2019-04-29T19:19:52.764Z,40.64
2019-04-29T19:24:56.224Z,40.65
2019-04-29T19:29:59.685Z,40.67
2019-04-29T19:35:03.865Z,40.65
2019-04-29T19:40:08.288Z,40.69
2019-04-29T19:45:13.099Z,40.72
2019-04-29T19:50:19.566Z,40.70
2019-04-29T19:55:22.398Z,40.70
2019-04-29T20:00:29.483Z,40.69
2019-04-29T20:05:38.915Z,40.76
2019-04-29T20:10:46.309Z,40.83
2019-04-29T20:15:45.979Z,40.85
2019-04-29T20:20:51.661Z,40.94
2019-04-29T20:26:05.523Z,40.99
2019-04-29T20:31:15.583Z,40.95
2019-04-29T20:36:06.273Z,40.95
2019-04-29T20:41:13.110Z,41.08
2019-04-29T20:46:15.937Z,41.06
2019-04-29T20:51:23.311Z,41.09
2019-04-29T20:56:29.817Z,41.10
2019-04-29T21:01:37.480Z,41.10
2019-04-29T21:06:43.874Z,41.09
2019-04-29T21:11:47.034Z,41.11
2019-04-29T21:16:52.165Z,41.12
2019-04-29T21:21:55.629Z,41.12
2019-04-29T21:26:59.088Z,41.13
2019-04-29T21:32:02.621Z,41.14
2019-04-29T21:37:22.661Z,41.12
2019-04-29T21:42:35.484Z,41.14
2019-04-29T21:47:44.443Z,41.12
2019-04-29T21:52:44.731Z,41.14
2019-04-29T21:57:48.790Z,41.14
2019-04-29T22:02:52.328Z,41.14
2019-04-29T22:07:55.960Z,41.14
2019-04-29T22:13:02.277Z,41.13
2019-04-29T22:18:08.604Z,41.12
2019-04-29T22:23:13.279Z,41.11
2019-04-29T22:28:19.559Z,41.10
2019-04-29T22:33:20.434Z,41.09
2019-04-29T22:38:24.982Z,41.11
2019-04-29T22:43:30.282Z,41.06
2019-04-29T22:48:34.896Z,41.08
2019-04-29T22:53:40.039Z,41.03
2019-04-29T22:58:45.123Z,41.07
2019-04-29T23:03:48.822Z,41.03
2019-04-29T23:08:52.295Z,41.03
2019-04-29T23:13:55.750Z,41.01
2019-04-29T23:18:59.210Z,41.01
2019-04-29T23:24:13.018Z,41.00
2019-04-29T23:29:12.168Z,40.98
2019-04-29T23:34:15.697Z,40.96
2019-04-29T23:39:19.166Z,40.97
2019-04-29T23:44:22.629Z,40.96
2019-04-29T23:49:26.092Z,40.96
2019-04-29T23:54:29.554Z,40.92
2019-04-29T23:59:37.146Z,40.91
